createdAt,value
2019-05-22T00:01:56.613Z,100409.72
2019-05-22T00:04:31.566Z,100409.72
2019-05-22T00:07:05.743Z,100407.95
2019-05-22T00:09:38.925Z,100409.73
2019-05-22T00:12:11.586Z,100414.61
2019-05-22T00:14:41.679Z,100411.95
2019-05-22T00:17:13.767Z,100417.70
2019-05-22T00:19:44.400Z,100415.95
2019-05-22T00:22:25.136Z,100423.05
2019-05-22T00:24:56.351Z,100429.24
2019-05-22T00:27:27.800Z,100435.47
2019-05-22T00:29:57.982Z,100427.05
2019-05-22T00:32:29.090Z,100426.62
2019-05-22T00:34:58.691Z,100426.66
2019-05-22T00:37:29.172Z,100434.65
2019-05-22T00:40:00.786Z,100440.85
2019-05-22T00:42:32.949Z,100441.74
2019-05-22T00:45:02.580Z,100442.18
2019-05-22T00:47:33.820Z,100437.78
2019-05-22T00:50:05.097Z,100447.97
2019-05-22T00:52:52.215Z,100445.30
2019-05-22T00:55:24.504Z,100443.09
2019-05-22T00:57:58.708Z,100447.97
2019-05-22T01:00:45.261Z,100457.72
2019-05-22T01:03:17.013Z,100452.44
2019-05-22T01:05:48.170Z,100450.23
2019-05-22T01:08:17.633Z,100463.53
2019-05-22T01:10:50.940Z,100458.67
2019-05-22T01:13:22.031Z,100462.64
2019-05-22T01:15:52.080Z,100465.77
2019-05-22T01:18:23.485Z,100458.22
2019-05-22T01:20:55.333Z,100459.11
2019-05-22T01:23:25.539Z,100458.23
2019-05-22T01:25:56.169Z,100461.76
2019-05-22T01:28:26.068Z,100462.66
2019-05-22T01:30:58.344Z,100457.79
2019-05-22T01:33:32.288Z,100452.94
2019-05-22T01:36:03.403Z,100463.98
2019-05-22T01:38:34.800Z,100470.63
2019-05-22T01:41:23.548Z,100465.77
2019-05-22T01:43:55.256Z,100474.63
2019-05-22T01:46:25.867Z,100471.95
2019-05-22T01:48:59.675Z,100479.05
2019-05-22T01:51:29.339Z,100484.80
2019-05-22T01:54:00.154Z,100481.72
2019-05-22T01:56:30.768Z,100481.71
2019-05-22T01:59:00.295Z,100483.48
2019-05-22T02:01:32.408Z,100488.80
2019-05-22T02:04:02.307Z,100491.91
2019-05-22T02:06:32.898Z,100493.20
2019-05-22T02:09:21.656Z,100490.12
2019-05-22T02:11:54.380Z,100494.98
2019-05-22T02:14:25.598Z,100505.63
2019-05-22T02:16:58.250Z,100503.41
2019-05-22T02:19:28.482Z,100505.61
2019-05-22T02:21:59.831Z,100513.16
2019-05-22T02:24:31.184Z,100501.64
2019-05-22T02:27:02.298Z,100498.08
2019-05-22T02:29:32.927Z,100495.01
2019-05-22T02:32:02.393Z,100501.20
2019-05-22T02:34:32.433Z,100506.50
2019-05-22T02:37:02.206Z,100510.95
2019-05-22T02:39:33.142Z,100511.37
2019-05-22T02:42:06.661Z,100507.84
2019-05-22T02:44:38.693Z,100514.47
2019-05-22T02:47:19.211Z,100517.12
2019-05-22T02:49:43.505Z,100511.80
2019-05-22T02:52:15.274Z,100514.91
2019-05-22T02:54:45.458Z,100518.45
2019-05-22T02:57:15.476Z,100510.50
2019-05-22T03:02:26.532Z,100511.81
2019-05-22T03:05:11.280Z,100522.02
2019-05-22T03:07:41.926Z,100526.44
2019-05-22T03:10:13.241Z,100526.44
2019-05-22T03:12:45.653Z,100534.83
2019-05-22T03:15:18.156Z,100530.41
2019-05-22T03:17:50.017Z,100525.08
2019-05-22T03:20:21.026Z,100528.17
2019-05-22T03:22:57.278Z,100528.16
2019-05-22T03:25:28.499Z,100531.70
2019-05-22T03:27:58.731Z,100536.55
2019-05-22T03:30:32.727Z,100538.28
2019-05-22T03:33:06.745Z,100537.88
2019-05-22T03:35:39.338Z,100544.98
2019-05-22T03:38:10.486Z,100547.64
2019-05-22T03:40:41.217Z,100545.41
2019-05-22T03:43:28.393Z,100550.29
2019-05-22T03:46:00.769Z,100547.20
2019-05-22T03:48:37.812Z,100555.61
2019-05-22T03:51:14.311Z,100559.59
2019-05-22T03:53:46.516Z,100557.33
2019-05-22T03:56:17.816Z,100563.11
2019-05-22T03:58:47.491Z,100562.64
2019-05-22T04:01:18.775Z,100565.73
2019-05-22T04:03:49.802Z,100565.33
2019-05-22T04:06:20.998Z,100567.11
2019-05-22T04:08:52.157Z,100571.12
2019-05-22T04:11:23.195Z,100574.21
2019-05-22T04:13:53.236Z,100581.26
2019-05-22T04:16:24.411Z,100581.66
2019-05-22T04:18:56.082Z,100585.17
2019-05-22T04:21:25.791Z,100584.31
2019-05-22T04:23:56.560Z,100587.83
2019-05-22T04:26:28.499Z,100587.90
2019-05-22T04:28:59.007Z,100593.58
2019-05-22T04:31:52.044Z,100592.68
2019-05-22T04:34:21.908Z,100594.01
2019-05-22T04:36:52.006Z,100603.77
2019-05-22T04:39:24.343Z,100609.08
2019-05-22T04:41:55.622Z,100601.97
2019-05-22T04:44:26.482Z,100598.85
2019-05-22T04:46:56.617Z,100597.52
2019-05-22T04:49:26.414Z,100595.77
2019-05-22T04:51:56.447Z,100601.97
2019-05-22T04:54:26.051Z,100601.11
2019-05-22T04:56:55.677Z,100601.54
2019-05-22T04:59:26.599Z,100608.17
2019-05-22T05:01:56.891Z,100609.97
2019-05-22T05:04:27.047Z,100612.63
2019-05-22T05:06:56.689Z,100618.80
2019-05-22T05:09:26.559Z,100617.05
2019-05-22T05:11:56.494Z,100615.28
2019-05-22T05:14:26.364Z,100619.34
2019-05-22T05:16:56.040Z,100615.78
2019-05-22T05:19:26.337Z,100621.52
2019-05-22T05:21:55.912Z,100628.13
2019-05-22T05:24:25.459Z,100622.81
2019-05-22T05:26:55.841Z,100627.19
2019-05-22T05:29:27.639Z,100628.52
2019-05-22T05:31:59.087Z,100630.31
2019-05-22T05:34:37.646Z,100633.83
2019-05-22T05:37:08.153Z,100641.41
2019-05-22T05:39:42.334Z,100635.70
2019-05-22T05:42:12.076Z,100641.01
2019-05-22T05:44:42.448Z,100645.89
2019-05-22T05:47:12.289Z,100643.23
2019-05-22T05:49:42.511Z,100643.23
2019-05-22T05:52:13.435Z,100656.98
2019-05-22T05:54:43.796Z,100656.11
2019-05-22T05:57:34.523Z,100653.92
2019-05-22T06:00:08.349Z,100657.45
2019-05-22T06:02:37.999Z,100662.33
2019-05-22T06:05:08.295Z,100658.34
2019-05-22T06:07:38.564Z,100664.58
2019-05-22T06:10:27.816Z,100665.05
2019-05-22T06:12:58.434Z,100669.03
2019-05-22T06:15:46.357Z,100667.23
2019-05-22T06:18:27.814Z,100675.67
2019-05-22T06:21:03.990Z,100672.58
2019-05-22T06:23:32.762Z,100671.25
2019-05-22T06:26:04.986Z,100676.59
2019-05-22T06:28:38.228Z,100681.47
2019-05-22T06:31:11.235Z,100675.73
2019-05-22T06:33:40.730Z,100671.77
2019-05-22T06:36:13.087Z,100671.33
2019-05-22T06:38:52.496Z,100678.86
2019-05-22T06:41:24.577Z,100684.19
2019-05-22T06:44:07.099Z,100689.50
2019-05-22T06:46:49.529Z,100688.17
2019-05-22T06:49:34.168Z,100704.15
2019-05-22T06:52:05.496Z,100692.58
2019-05-22T06:54:35.162Z,100688.16
2019-05-22T06:57:08.249Z,100690.81
2019-05-22T06:59:38.574Z,100682.84
2019-05-22T07:02:09.762Z,100691.69
2019-05-22T07:04:40.169Z,100686.39
2019-05-22T07:07:11.808Z,100695.25
2019-05-22T07:09:41.960Z,100694.78
2019-05-22T07:12:17.473Z,100705.85
2019-05-22T07:15:07.091Z,100709.38
2019-05-22T07:17:39.202Z,100713.36
2019-05-22T07:20:10.975Z,100718.24
2019-05-22T07:22:40.619Z,100720.00
2019-05-22T07:25:10.957Z,100721.34
2019-05-22T07:27:41.255Z,100722.66
2019-05-22T07:30:11.245Z,100731.56
2019-05-22T07:32:42.675Z,100720.00
2019-05-22T07:35:13.289Z,100733.73
2019-05-22T07:37:45.804Z,100738.18
2019-05-22T07:40:15.659Z,100739.53
2019-05-22T07:42:45.755Z,100733.35
2019-05-22T07:45:16.408Z,100744.91
2019-05-22T07:47:47.963Z,100742.69
2019-05-22T07:50:19.512Z,100751.14
2019-05-22T07:52:50.475Z,100736.98
2019-05-22T07:55:22.277Z,100746.71
2019-05-22T07:58:09.980Z,100755.16
2019-05-22T08:00:42.758Z,100745.38
2019-05-22T08:03:12.687Z,100758.67
2019-05-22T08:05:45.282Z,100759.55
2019-05-22T08:08:18.743Z,100765.73
2019-05-22T08:10:47.895Z,100775.53
2019-05-22T08:13:18.115Z,100768.83
2019-05-22T08:15:48.216Z,100774.61
2019-05-22T08:18:18.246Z,100778.58
2019-05-22T08:20:48.543Z,100779.00
2019-05-22T08:23:19.212Z,100775.48
2019-05-22T08:25:48.859Z,100770.10
2019-05-22T08:28:19.927Z,100774.52
2019-05-22T08:30:50.074Z,100784.33
2019-05-22T08:33:20.895Z,100781.27
2019-05-22T08:35:52.956Z,100788.36
2019-05-22T08:38:29.154Z,100785.70
2019-05-22T08:41:01.307Z,100795.88
2019-05-22T08:43:56.132Z,100792.73
2019-05-22T08:46:07.545Z,100789.20
2019-05-22T08:48:40.618Z,100793.20
2019-05-22T08:51:10.895Z,100800.74
2019-05-22T08:53:47.641Z,100802.04
2019-05-22T08:56:13.198Z,100804.23
2019-05-22T08:58:45.111Z,100808.22
2019-05-22T09:01:15.782Z,100805.56
2019-05-22T09:03:45.507Z,100803.41
2019-05-22T09:06:16.018Z,100811.84
2019-05-22T09:08:46.154Z,100811.41
2019-05-22T09:11:15.770Z,100814.98
2019-05-22T09:13:45.516Z,100819.43
2019-05-22T09:16:16.857Z,100813.22
2019-05-22T09:18:46.700Z,100813.24
2019-05-22T09:21:16.708Z,100823.86
2019-05-22T09:23:47.439Z,100822.10
2019-05-22T09:26:18.387Z,100826.52
2019-05-22T09:28:47.944Z,100828.31
2019-05-22T09:31:18.576Z,100830.08
2019-05-22T09:33:49.175Z,100831.87
2019-05-22T09:36:18.634Z,100834.06
2019-05-22T09:38:52.196Z,100832.74
2019-05-22T09:41:20.210Z,100843.78
2019-05-22T09:43:49.706Z,100840.69
2019-05-22T09:46:19.376Z,100838.98
2019-05-22T09:48:49.001Z,100843.45
2019-05-22T09:51:19.801Z,100847.91
2019-05-22T09:53:49.695Z,100845.66
2019-05-22T09:56:19.315Z,100846.50
2019-05-22T09:58:48.817Z,100847.83
2019-05-22T10:01:18.510Z,100850.05
2019-05-22T10:03:48.448Z,100850.00
2019-05-22T10:06:21.528Z,100860.21
2019-05-22T10:08:49.675Z,100858.41
2019-05-22T10:11:20.831Z,100867.32
2019-05-22T10:13:50.706Z,100867.72
2019-05-22T10:16:20.747Z,100874.37
2019-05-22T10:18:53.059Z,100869.48
2019-05-22T10:21:22.320Z,100880.47
2019-05-22T10:23:52.399Z,100884.78
2019-05-22T10:26:22.109Z,100881.23
2019-05-22T10:28:51.984Z,100883.08
2019-05-22T10:31:22.863Z,100880.91
2019-05-22T10:33:52.597Z,100884.89
2019-05-22T10:36:22.194Z,100879.14
2019-05-22T10:38:51.731Z,100889.73
2019-05-22T10:41:22.218Z,100882.62
2019-05-22T10:43:52.194Z,100883.12
2019-05-22T10:46:22.346Z,100890.68
2019-05-22T10:48:51.928Z,100894.23
2019-05-22T10:51:21.793Z,100896.98
2019-05-22T10:53:51.910Z,100888.27
2019-05-22T10:56:21.368Z,100898.97
2019-05-22T10:58:52.307Z,100886.56
2019-05-22T11:01:23.367Z,100894.09
2019-05-22T11:03:54.798Z,100891.45
2019-05-22T11:06:25.001Z,100888.33
2019-05-22T11:08:55.561Z,100898.99
2019-05-22T11:11:25.258Z,100891.89
2019-05-22T11:14:01.367Z,100893.21
2019-05-22T11:16:27.966Z,100896.75
2019-05-22T11:19:21.328Z,100897.20
2019-05-22T11:22:13.491Z,100899.38
2019-05-22T11:51:33.981Z,100917.21
2019-05-22T11:55:07.298Z,100919.88
2019-05-22T12:05:19.917Z,100930.52
2019-05-22T12:20:11.513Z,100922.97
2019-05-22T12:23:25.963Z,100932.73
2019-05-22T12:26:03.977Z,100924.27
2019-05-22T12:32:15.079Z,100926.96
2019-05-22T12:38:12.458Z,100930.10
2019-05-22T12:41:00.358Z,100934.99
2019-05-22T12:47:00.785Z,100930.04
2019-05-22T12:53:01.886Z,100934.95
2019-05-22T12:55:35.807Z,100942.52
2019-05-22T12:58:11.603Z,100946.06
2019-05-22T13:00:43.929Z,100939.37
2019-05-22T13:03:19.082Z,100943.30
2019-05-22T13:06:15.223Z,100937.53
2019-05-22T14:32:31.041Z,100957.30
2019-05-22T14:34:59.550Z,100963.39
2019-05-22T14:37:29.408Z,100959.77
2019-05-22T14:39:59.080Z,100961.85
2019-05-22T14:42:29.734Z,100952.97
2019-05-22T14:44:59.484Z,100955.25
2019-05-22T14:47:29.212Z,100955.94
2019-05-22T14:49:58.841Z,100959.38
2019-05-22T14:52:28.937Z,100956.11
2019-05-22T14:54:58.891Z,100955.31
2019-05-22T14:57:28.501Z,100956.41
2019-05-22T14:59:58.244Z,100953.73
2019-05-22T15:02:28.303Z,100959.52
2019-05-22T15:04:58.433Z,100960.97
2019-05-22T15:07:27.958Z,100958.30
2019-05-22T15:09:57.833Z,100972.48
2019-05-22T15:12:27.782Z,100968.45
2019-05-22T15:14:58.714Z,100958.05
2019-05-22T15:17:32.835Z,100964.70
2019-05-22T15:19:59.675Z,100957.70
2019-05-22T15:22:29.892Z,100964.91
2019-05-22T15:24:59.629Z,100961.30
2019-05-22T15:27:29.858Z,100955.85
2019-05-22T15:29:59.783Z,100960.99
2019-05-22T15:32:30.315Z,100958.07
2019-05-22T15:35:00.035Z,100957.22
2019-05-22T15:37:29.823Z,100950.19
2019-05-22T15:39:59.391Z,100968.52
2019-05-22T15:42:34.666Z,100959.73
2019-05-22T15:45:07.322Z,100952.19
2019-05-22T15:47:53.766Z,100943.83
2019-05-22T15:50:11.059Z,100951.66
2019-05-22T15:52:43.644Z,100948.73
2019-05-22T15:55:14.549Z,100951.97
2019-05-22T15:57:45.520Z,100946.13
2019-05-22T16:00:19.060Z,100949.99
2019-05-22T16:02:49.792Z,100944.70
2019-05-22T16:05:20.926Z,100945.98
2019-05-22T16:07:52.753Z,100943.80
2019-05-22T16:10:24.145Z,100945.56
2019-05-22T16:12:55.547Z,100958.45
2019-05-22T16:15:26.903Z,100945.16
2019-05-22T16:18:11.133Z,100945.56
2019-05-22T16:20:32.847Z,100943.39
2019-05-22T16:23:03.012Z,100943.33
2019-05-22T16:25:33.695Z,100944.18
2019-05-22T16:28:04.480Z,100946.30
2019-05-22T16:30:35.010Z,100944.27
2019-05-22T16:33:07.042Z,100940.83
2019-05-22T16:35:36.828Z,100944.64
2019-05-22T16:38:08.410Z,100938.05
2019-05-22T16:40:39.640Z,100937.49
2019-05-22T16:43:10.256Z,100941.63
2019-05-22T16:45:40.114Z,100951.86
2019-05-22T16:48:27.311Z,100947.06
2019-05-22T16:50:42.602Z,100945.78
2019-05-22T16:53:13.765Z,100948.17
2019-05-22T16:55:44.104Z,100940.68
2019-05-22T16:58:14.069Z,100945.15
2019-05-22T17:00:45.793Z,100947.23
2019-05-22T17:03:17.046Z,100950.95
2019-05-22T17:05:46.797Z,100950.16
2019-05-22T17:08:16.833Z,100950.30
2019-05-22T17:10:46.843Z,100952.21
2019-05-22T17:13:16.763Z,100951.83
2019-05-22T17:15:47.430Z,100958.16
2019-05-22T17:18:18.081Z,100955.52
2019-05-22T17:20:48.217Z,100957.06
2019-05-22T17:23:17.747Z,100953.83
2019-05-22T17:25:47.836Z,100948.56
2019-05-22T17:28:17.807Z,100945.66
2019-05-22T17:30:47.867Z,100946.16
2019-05-22T17:33:18.434Z,100951.83
2019-05-22T17:35:48.131Z,100946.22
2019-05-22T17:38:18.957Z,100951.73
2019-05-22T17:40:50.162Z,100950.47
2019-05-22T17:43:20.451Z,100950.98
2019-05-22T17:45:51.862Z,100952.80
2019-05-22T17:48:21.899Z,100955.98
2019-05-22T17:50:53.559Z,100954.65
2019-05-22T17:53:24.201Z,100951.13
2019-05-22T17:55:54.451Z,100960.94
2019-05-22T17:58:29.004Z,100960.08
2019-05-22T18:00:56.282Z,100957.00
2019-05-22T18:03:25.947Z,100956.55
2019-05-22T18:05:55.773Z,100957.92
2019-05-22T18:08:26.405Z,100962.37
2019-05-22T18:10:58.063Z,100959.30
2019-05-22T18:13:28.949Z,100962.87
2019-05-22T18:15:58.790Z,100950.42
2019-05-22T18:18:28.493Z,100954.02
2019-05-22T18:20:58.185Z,100958.90
2019-05-22T18:23:27.735Z,100959.78
2019-05-22T18:25:57.295Z,100962.91
2019-05-22T18:28:27.426Z,100965.14
2019-05-22T18:30:57.305Z,100970.92
2019-05-22T18:33:28.199Z,100963.39
2019-05-22T18:35:59.193Z,100961.62
2019-05-22T18:38:28.744Z,100963.41
2019-05-22T18:40:59.824Z,100958.97
2019-05-22T18:43:29.604Z,100962.09
2019-05-22T18:45:59.247Z,100966.54
2019-05-22T18:48:28.799Z,100966.09
2019-05-22T18:50:58.585Z,100972.32
2019-05-22T18:53:28.249Z,100973.60
2019-05-22T18:55:57.916Z,100978.49
2019-05-22T18:58:28.206Z,100984.70
2019-05-22T19:00:58.832Z,100985.16
2019-05-22T19:03:28.459Z,100987.37
2019-05-22T19:05:58.158Z,100983.82
2019-05-22T19:08:28.212Z,100985.13
2019-05-22T19:10:58.741Z,100986.48
2019-05-22T19:13:28.380Z,100985.12
2019-05-22T19:15:57.854Z,100989.13
2019-05-22T19:18:27.554Z,100989.53
2019-05-22T19:20:57.040Z,100994.44
2019-05-22T19:23:26.604Z,100996.64
2019-05-22T19:25:56.338Z,100997.94
2019-05-22T19:28:41.979Z,100999.70
2019-05-22T19:30:57.559Z,101001.47
2019-05-22T19:33:27.302Z,101003.23
2019-05-22T19:35:56.860Z,101009.42
2019-05-22T19:38:27.253Z,101005.40
2019-05-22T19:40:57.149Z,101010.72
2019-05-22T19:43:26.697Z,101015.14
2019-05-22T19:45:56.851Z,101012.87
2019-05-22T19:48:28.541Z,101014.62
2019-05-22T19:51:01.770Z,101010.59
2019-05-22T19:53:31.087Z,101022.09
2019-05-22T19:56:00.821Z,101023.37
2019-05-22T19:58:30.766Z,101024.28
2019-05-22T20:01:00.494Z,101030.41
2019-05-22T20:03:30.303Z,101028.16
2019-05-22T20:06:00.465Z,101026.36
2019-05-22T20:08:30.362Z,101025.92
2019-05-22T20:11:00.294Z,101030.75
2019-05-22T20:13:30.319Z,101033.78
2019-05-22T20:15:59.912Z,101023.99
2019-05-22T20:18:30.157Z,101029.73
2019-05-22T20:21:00.583Z,101035.45
2019-05-22T20:23:35.774Z,101032.73
2019-05-22T20:26:02.524Z,101035.78
2019-05-22T20:28:32.802Z,101032.16
2019-05-22T20:31:03.030Z,101037.89
2019-05-22T20:33:33.059Z,101039.19
2019-05-22T20:36:03.261Z,101039.54
2019-05-22T20:38:33.780Z,101041.69
2019-05-22T20:41:03.690Z,101042.09
2019-05-22T20:43:34.063Z,101043.36
2019-05-22T20:46:05.929Z,101042.92
2019-05-22T20:48:36.052Z,101046.80
2019-05-22T20:51:07.742Z,101048.09
2019-05-22T20:53:52.990Z,101048.01
2019-05-22T20:56:11.476Z,101052.39
2019-05-22T20:58:43.251Z,101053.23
2019-05-22T21:01:13.572Z,101053.63
2019-05-22T21:03:44.007Z,101049.14
2019-05-22T21:06:15.701Z,101053.09
2019-05-22T21:08:46.595Z,101053.92
2019-05-22T21:11:17.621Z,101057.41
2019-05-22T21:13:47.655Z,101056.05
2019-05-22T21:16:17.767Z,101059.12
2019-05-22T21:18:52.272Z,101054.22
2019-05-22T21:21:23.688Z,101063.06
2019-05-22T21:24:07.718Z,101067.44
2019-05-22T21:26:25.679Z,101059.83
2019-05-22T21:28:55.503Z,101060.69
2019-05-22T21:31:25.666Z,101064.59
2019-05-22T21:33:56.913Z,101066.78
2019-05-22T21:36:29.619Z,101064.95
2019-05-22T21:38:59.750Z,101071.50
2019-05-22T21:41:30.307Z,101068.81
2019-05-22T21:44:00.083Z,101064.34
2019-05-22T21:46:30.122Z,101068.73
2019-05-22T21:49:00.113Z,101067.34
2019-05-22T21:51:29.976Z,101065.08
2019-05-22T21:53:59.506Z,101060.63
2019-05-22T21:56:30.472Z,101059.78
2019-05-22T21:59:00.043Z,101061.50
2019-05-22T22:01:34.893Z,101064.58
2019-05-22T22:04:06.056Z,101061.92
2019-05-22T22:06:35.971Z,101071.63
2019-05-22T22:09:08.316Z,101070.73
2019-05-22T22:11:38.786Z,101072.95
2019-05-22T22:14:09.033Z,101071.61
2019-05-22T22:16:39.790Z,101071.17
2019-05-22T22:19:10.986Z,101088.83
2019-05-22T22:21:40.803Z,101085.23
2019-05-22T22:24:10.894Z,101086.48
2019-05-22T22:26:41.073Z,101091.72
2019-05-22T22:29:10.649Z,101097.02
2019-05-22T22:31:41.482Z,101091.74
2019-05-22T22:34:17.479Z,101089.14
2019-05-22T22:36:49.466Z,101093.20
2019-05-22T22:39:21.552Z,101095.98
2019-05-22T22:41:52.354Z,101105.41
2019-05-22T22:44:23.179Z,101104.64
2019-05-22T22:46:57.466Z,101107.84
2019-05-22T22:49:28.128Z,101112.42
2019-05-22T22:51:59.227Z,101104.50
2019-05-22T22:54:29.152Z,101104.59
2019-05-22T22:57:00.059Z,101101.48
2019-05-22T22:59:29.853Z,101097.51
2019-05-22T23:02:01.657Z,101102.78
2019-05-22T23:04:32.107Z,101096.15
2019-05-22T23:07:06.219Z,101093.91
2019-05-22T23:09:38.885Z,101094.28
2019-05-22T23:12:09.999Z,101098.23
2019-05-22T23:14:42.493Z,101094.58
2019-05-22T23:17:12.752Z,101099.81
2019-05-22T23:19:43.080Z,101103.70
2019-05-22T23:22:13.355Z,101105.84
2019-05-22T23:24:43.887Z,101105.80
2019-05-22T23:27:15.262Z,101113.68
2019-05-22T23:29:45.401Z,101110.14
2019-05-22T23:32:17.817Z,101114.98
2019-05-22T23:34:48.427Z,101113.23
2019-05-22T23:37:20.448Z,101108.36
2019-05-22T23:39:53.106Z,101108.36
2019-05-22T23:42:25.743Z,101108.37
2019-05-22T23:44:57.115Z,101107.90
2019-05-22T23:47:28.111Z,101106.50
2019-05-22T23:49:58.077Z,101116.16
2019-05-22T23:52:27.978Z,101113.46
2019-05-22T23:54:58.012Z,101107.64
2019-05-22T23:57:28.300Z,101108.93
2019-05-22T23:59:58.919Z,101104.88
